KPRN

Mac Crenshaw Memorial Airport

Greenville, Alabama, USA
METAR KPRN 171811Z AUTO 02006KT 10SM BKN013 OVC031 26/19 A3019 RMK AO2 T02560189
Observed Flight Rules
Oct-17 @ 18:11 UTC (30 minutes ago) Marginal Visual Flight Rules
Wind Visibility Clouds
20° at 6 knots 10 miles
  • Broken at 1,300' AGL
  • Overcast at 3,100' AGL
Temperatures Readings
Current 26°C / 79°F
Dewpoint 19°C / 66°F
Humidity 65%
Altimeter 30.19" Hg
Pressure 1022 hPa
Elevation 138
METAR KPRN 171811Z AUTO 02006KT 10SM BKN013 OVC031 26/19 A3019 RMK AO2 T02560189
Observed Flight Rules
Oct-17 @ 18:11 UTC
(30 minutes ago)
MVFR
Wind Visibility
20° at 6 knots 10 miles
Clouds
  • Broken at 1,300' AGL
  • Overcast at 3,100' AGL
Temperature Dewpoint
26°C / 79°F 19°C / 66°F
Humidity Altimeter Pressure
65% 30.19" Hg 1022 hPa